Time;durP1;ratioP1;P1;durP2;ratioP2;P2;SDS_P1;SDS_P2;PMS_P1;PMS_P2;Temp;Humidity;BMP_temperature;BMP_pressure;BME280_temperature;BME280_humidity;BME280_pressure;Samples;Min_cycle;Max_cycle;Signal;HPM_P1;HPM_P2
2022/04/14 06:03:55;;;;;;;7.57;5.80;;;;;;;;;;10588184;27;20361;-83
2022/04/14 06:08:57;;;;;;;12.32;8.27;;;;;;;;;;10526542;28;20032;-84
2022/04/14 06:13:58;;;;;;;9.60;6.13;;;;;;;;;;10535757;28;20043;-86
2022/04/14 06:19:02;;;;;;;10.35;7.07;;;;;;;;;;10541663;28;20043;-83
2022/04/14 06:24:08;;;;;;;6.30;4.38;;;;;;;;;;10526867;28;20115;-83
2022/04/14 06:29:12;;;;;;;8.57;6.05;;;;;;;;;;10526591;28;20032;-83
2022/04/14 06:34:24;;;;;;;29.25;20.45;;;;;;;;;;10540029;28;20020;-83
2022/04/14 06:39:35;;;;;;;6.38;4.80;;;;;;;;;;10557510;28;20135;-84
2022/04/14 06:44:41;;;;;;;;;;;;;;;;;;10546740;28;20030;-84
2022/04/14 06:49:43;;;;;;;8.52;6.85;;;;;;;;;;10529560;28;19904;-84
2022/04/14 06:54:58;;;;;;;10.23;7.70;;;;;;;;;;10543925;28;20339;-85
2022/04/14 06:59:59;;;;;;;8.55;6.35;;;;;;;;;;10524891;28;20115;-87
2022/04/14 07:05:00;;;;;;;11.20;8.38;;;;;;;;;;10534721;28;20022;-79
2022/04/14 07:10:27;;;;;;;13.60;9.25;;;;;;;;;;10527982;28;20021;-80
2022/04/14 07:15:28;;;;;;;12.98;10.18;;;;;;;;;;10495444;28;20021;-80
2022/04/14 07:20:30;;;;;;;16.90;12.70;;;;;;;;;;10495820;28;20128;-79
2022/04/14 07:25:33;;;;;;;22.17;15.70;;;;;;;;;;10497692;28;20028;-80
2022/04/14 07:30:36;;;;;;;22.40;16.42;;;;;;;;;;10499254;28;20049;-78
2022/04/14 07:35:57;;;;;;;20.83;14.88;;;;;;;;;;10527123;28;20040;-79
2022/04/14 07:41:05;;;;;;;23.33;18.73;;;;;;;;;;10511977;28;20056;-79
2022/04/14 07:46:21;;;;;;;27.33;19.08;;;;;;;;;;10522078;28;20025;-78
2022/04/14 07:51:22;;;;;;;24.27;18.88;;;;;;;;;;10510469;28;20047;-79
2022/04/14 07:56:23;;;;;;;28.52;21.65;;;;;;;;;;10510644;28;20078;-79
2022/04/14 08:01:24;;;;;;;28.58;22.88;;;;;;;;;;10506923;28;20020;-79
2022/04/14 08:06:27;;;;;;;26.77;21.83;;;;;;;;;;10501307;28;20119;-80
2022/04/14 08:11:30;;;;;;;30.23;22.05;;;;;;;;;;10499685;28;20124;-81
2022/04/14 08:16:31;;;;;;;28.90;22.38;;;;;;;;;;10498216;28;20028;-82
2022/04/14 08:21:32;;;;;;;30.05;23.05;;;;;;;;;;10498607;28;20021;-82
2022/04/14 08:26:42;;;;;;;27.45;21.65;;;;;;;;;;10498352;28;20027;-81
2022/04/14 08:31:43;;;;;;;30.67;24.15;;;;;;;;;;10504686;28;20009;-81
2022/04/14 08:36:45;;;;;;;33.33;25.35;;;;;;;;;;10532429;28;20032;-81
2022/04/14 08:41:54;;;;;;;27.98;22.08;;;;;;;;;;10513354;28;20029;-82
2022/04/14 08:47:22;;;;;;;29.98;24.83;;;;;;;;;;10521784;28;20025;-82
2022/04/14 08:52:45;;;;;;;30.83;24.33;;;;;;;;;;10513605;28;20032;-79
2022/04/14 08:58:07;;;;;;;29.27;22.88;;;;;;;;;;10497589;28;20033;-80
2022/04/14 09:03:28;;;;;;;23.40;19.55;;;;;;;;;;10517091;28;20044;-79
2022/04/14 09:08:32;;;;;;;26.27;20.48;;;;;;;;;;10496950;28;20025;-79
2022/04/14 09:13:33;;;;;;;22.23;18.02;;;;;;;;;;10504322;28;20478;-79
2022/04/14 09:18:47;;;;;;;19.90;17.80;;;;;;;;;;10504301;28;20021;-80
2022/04/14 09:23:52;;;;;;;18.65;15.38;;;;;;;;;;10506006;28;20062;-82
2022/04/14 09:29:05;;;;;;;19.27;16.50;;;;;;;;;;10509291;28;20035;-80
2022/04/14 09:34:08;;;;;;;21.63;18.13;;;;;;;;;;10501657;28;20063;-78
2022/04/14 09:39:13;;;;;;;16.40;14.30;;;;;;;;;;10493476;28;20032;-81
2022/04/14 09:44:14;;;;;;;15.38;13.55;;;;;;;;;;10503701;28;20025;-80
2022/04/14 09:49:17;;;;;;;17.25;13.10;;;;;;;;;;10509115;28;20028;-79
2022/04/14 09:54:22;;;;;;;15.70;13.30;;;;;;;;;;10509388;28;20037;-81
2022/04/14 09:59:25;;;;;;;16.20;14.50;;;;;;;;;;10506619;28;20032;-81
2022/04/14 10:04:34;;;;;;;16.45;12.32;;;;;;;;;;10508517;28;20024;-80
2022/04/14 10:10:00;;;;;;;12.13;10.20;;;;;;;;;;10506979;28;20043;-81
2022/04/14 10:15:10;;;;;;;11.50;9.25;;;;;;;;;;10550588;22;20047;-80
2022/04/14 10:20:14;;;;;;;11.73;9.43;;;;;;;;;;10550605;28;20032;-81
2022/04/14 10:25:16;;;;;;;11.55;9.07;;;;;;;;;;10526778;28;20033;-81
2022/04/14 10:30:19;;;;;;;11.90;10.02;;;;;;;;;;10508680;28;20020;-82
2022/04/14 10:35:20;;;;;;;11.80;8.73;;;;;;;;;;10528059;28;20016;-81
2022/04/14 10:40:22;;;;;;;10.02;6.80;;;;;;;;;;10497513;28;20028;-81
2022/04/14 10:45:23;;;;;;;8.00;6.88;;;;;;;;;;10495373;28;20032;-79
2022/04/14 10:50:34;;;;;;;7.43;6.25;;;;;;;;;;10498132;28;20052;-79
2022/04/14 10:55:35;;;;;;;7.97;5.90;;;;;;;;;;10506631;28;20021;-79
2022/04/14 11:00:37;;;;;;;6.47;5.57;;;;;;;;;;10514278;28;20032;-79
2022/04/14 11:05:46;;;;;;;8.52;7.30;;;;;;;;;;10496538;28;20095;-79
2022/04/14 11:11:05;;;;;;;7.15;6.15;;;;;;;;;;10499970;28;20025;-81
2022/04/14 11:16:25;;;;;;;13.55;11.50;;;;;;;;;;10498582;28;20033;-81
2022/04/14 11:21:33;;;;;;;11.45;9.35;;;;;;;;;;10496526;28;20036;-81
2022/04/14 11:26:39;;;;;;;12.85;10.52;;;;;;;;;;10498825;28;20080;-81
2022/04/14 11:31:45;;;;;;;9.25;8.25;;;;;;;;;;10515726;28;20040;-80
2022/04/14 11:36:47;;;;;;;7.55;6.75;;;;;;;;;;10517000;28;20028;-81
2022/04/14 11:41:53;;;;;;;6.53;5.30;;;;;;;;;;10495349;28;20024;-79
2022/04/14 11:46:54;;;;;;;10.30;7.05;;;;;;;;;;10494728;28;20047;-79
2022/04/14 11:51:57;;;;;;;7.20;6.43;;;;;;;;;;10493657;28;20025;-80
2022/04/14 11:57:01;;;;;;;10.40;8.80;;;;;;;;;;10512503;28;20437;-80
2022/04/14 12:02:09;;;;;;;10.88;8.05;;;;;;;;;;10494633;28;20040;-80
2022/04/14 12:07:11;;;;;;;8.73;6.18;;;;;;;;;;10494940;28;20024;-80
2022/04/14 12:12:17;;;;;;;10.40;7.70;;;;;;;;;;10495478;28;20028;-80
2022/04/14 12:17:23;;;;;;;11.88;9.13;;;;;;;;;;10513805;28;20048;-80
2022/04/14 12:22:26;;;;;;;5.53;4.00;;;;;;;;;;10496590;28;20051;-80
2022/04/14 12:27:30;;;;;;;6.93;5.90;;;;;;;;;;10512917;28;20025;-81
2022/04/14 12:32:31;;;;;;;5.40;3.95;;;;;;;;;;10511755;28;20032;-81
2022/04/14 12:37:34;;;;;;;8.20;5.97;;;;;;;;;;10493275;28;20028;-81
2022/04/14 12:42:35;;;;;;;6.13;4.97;;;;;;;;;;10496421;28;20052;-81
2022/04/14 12:47:37;;;;;;;6.75;4.95;;;;;;;;;;10500662;28;20028;-82
2022/04/14 12:52:39;;;;;;;8.55;7.15;;;;;;;;;;10503290;28;20040;-81
2022/04/14 12:57:40;;;;;;;6.25;4.55;;;;;;;;;;10495601;28;20070;-80
2022/04/14 13:02:43;;;;;;;7.03;5.43;;;;;;;;;;10494599;28;20042;-82
2022/04/14 13:07:46;;;;;;;9.02;7.85;;;;;;;;;;10491563;28;20032;-81
2022/04/14 13:12:47;;;;;;;10.05;8.38;;;;;;;;;;10494487;28;20028;-81
2022/04/14 13:17:49;;;;;;;6.70;5.13;;;;;;;;;;10489381;28;20034;-81
2022/04/14 13:22:54;;;;;;;7.95;6.18;;;;;;;;;;10488236;28;20024;-81
2022/04/14 13:27:55;;;;;;;8.85;6.53;;;;;;;;;;10489399;28;20072;-81
2022/04/14 13:32:56;;;;;;;6.72;5.40;;;;;;;;;;10506608;28;20029;-82
2022/04/14 13:37:57;;;;;;;5.53;4.95;;;;;;;;;;10487650;28;20021;-81
2022/04/14 13:42:59;;;;;;;6.68;5.70;;;;;;;;;;10507675;28;20424;-80
2022/04/14 13:48:00;;;;;;;5.28;3.97;;;;;;;;;;10487922;28;20025;-81
2022/04/14 13:53:01;;;;;;;5.47;4.75;;;;;;;;;;10489077;28;20028;-80
2022/04/14 13:58:02;;;;;;;9.45;7.90;;;;;;;;;;10505832;28;20103;-80
2022/04/14 14:03:03;;;;;;;6.95;4.70;;;;;;;;;;10487808;28;20031;-80
2022/04/14 14:08:05;;;;;;;4.03;2.60;;;;;;;;;;10488599;28;20084;-80
2022/04/14 14:13:06;;;;;;;4.00;3.50;;;;;;;;;;10488365;28;20048;-83
2022/04/14 14:18:07;;;;;;;4.85;3.20;;;;;;;;;;10490113;28;20025;-82
2022/04/14 14:23:08;;;;;;;3.58;2.80;;;;;;;;;;10493347;28;20028;-81
2022/04/14 14:28:09;;;;;;;3.22;2.80;;;;;;;;;;10498498;28;20039;-82
2022/04/14 14:33:10;;;;;;;4.25;2.60;;;;;;;;;;10501950;28;20025;-81
2022/04/14 14:38:11;;;;;;;5.85;3.85;;;;;;;;;;10501304;28;20023;-83
2022/04/14 14:43:12;;;;;;;4.55;3.83;;;;;;;;;;10498850;28;20023;-81
2022/04/14 14:48:14;;;;;;;2.88;2.33;;;;;;;;;;10496552;28;20028;-81
2022/04/14 14:53:15;;;;;;;9.38;6.20;;;;;;;;;;10498461;28;20063;-80
2022/04/14 15:03:36;;;;;;;3.65;2.45;;;;;;;;;;10515042;28;20029;-82
2022/04/14 15:08:38;;;;;;;3.97;2.60;;;;;;;;;;10496276;28;20029;-81
2022/04/14 15:13:39;;;;;;;5.50;3.05;;;;;;;;;;10492958;28;20036;-81
2022/04/14 15:18:40;;;;;;;5.15;2.53;;;;;;;;;;10494573;28;20437;-82
2022/04/14 15:23:41;;;;;;;5.22;3.50;;;;;;;;;;10494437;28;20542;-81
2022/04/14 15:28:45;;;;;;;7.63;3.70;;;;;;;;;;10495566;28;20429;-82
2022/04/14 15:34:17;;;;;;;4.07;2.60;;;;;;;;;;10510685;28;20028;-81
2022/04/14 15:39:26;;;;;;;3.83;2.30;;;;;;;;;;10483596;28;20047;-81
2022/04/14 15:44:47;;;;;;;5.18;3.15;;;;;;;;;;10533403;28;20036;-81
2022/04/14 15:49:50;;;;;;;4.38;2.30;;;;;;;;;;10517502;28;20029;-81
2022/04/14 15:55:00;;;;;;;4.45;2.08;;;;;;;;;;10533688;28;20020;-82
2022/04/14 16:00:09;;;;;;;3.55;2.35;;;;;;;;;;10534388;28;20020;-80
2022/04/14 16:05:11;;;;;;;3.45;2.25;;;;;;;;;;10516993;28;20020;-81
2022/04/14 16:15:33;;;;;;;4.20;1.75;;;;;;;;;;10580921;22;20502;-81
2022/04/14 16:20:34;;;;;;;8.27;4.85;;;;;;;;;;10477088;28;20363;-79
2022/04/14 16:25:50;;;;;;;4.57;3.10;;;;;;;;;;10500615;28;20080;-85
2022/04/14 16:30:51;;;;;;;5.68;4.10;;;;;;;;;;10505569;28;20033;-83
2022/04/14 16:35:59;;;;;;;4.38;3.28;;;;;;;;;;10491555;28;20028;-84
2022/04/14 16:41:02;;;;;;;6.22;3.60;;;;;;;;;;10473963;28;20037;-86
2022/04/14 16:46:04;;;;;;;5.25;3.00;;;;;;;;;;10476790;28;20040;-82
2022/04/14 16:51:32;;;;;;;2.88;2.30;;;;;;;;;;10475474;28;20032;-84
2022/04/14 16:56:40;;;;;;;6.32;4.45;;;;;;;;;;10474503;28;20064;-85
2022/04/14 17:01:42;;;;;;;3.72;2.70;;;;;;;;;;10475358;28;20056;-84
2022/04/14 17:06:48;;;;;;;6.60;5.00;;;;;;;;;;10473479;28;20402;-85
2022/04/14 17:12:05;;;;;;;6.95;4.82;;;;;;;;;;10470634;28;20371;-85
2022/04/14 17:17:30;;;;;;;8.43;4.63;;;;;;;;;;10467814;28;20045;-85
2022/04/14 17:34:02;;;;;;;5.75;3.42;;;;;;;;;;10507241;28;20045;-85
2022/04/14 17:50:44;;;;;;;3.47;2.78;;;;;;;;;;10472695;28;20025;-87
2022/04/14 17:55:52;;;;;;;4.60;4.07;;;;;;;;;;10442637;28;20060;-86
